Terminal Aerodrome Forecast
Issued by NWS

Home | Current Version | Previous Version | Text Only | Print | Product List | Glossary On
Versions: 1 2 3 4 5 6 7 8 9 10 11 12 13 14 15 16 17 18
802
FTUS44 KBMX 061720
TAFANB
TAF
KANB 061720Z 0618/0718 24010G17KT P6SM SCT012 OVC025
     FM070000 29005KT P6SM OVC004
     FM071200 36005KT P6SM OVC004=

USA.gov is the U.S. government's official web portal to all federal, state and local government web resources and services.